Terminal Aerodrome Forecast
Issued by NWS

Home | Current Version | Previous Version | Graphics & Text | Print | Product List | Glossary On
Versions: 1 2 3 4 5 6 7 8 9 10 11 12 13 14 15 16 17 18 19 20 21 22
358
FTUS41 KCLE 301212 AAA
TAFFDY
TAF AMD
KFDY 301212Z 3012/0112 09010KT 2SM BR OVC005
      TEMPO 3012/3014 1/2SM FG OVC002
     FM301500 12012KT P6SM BKN015
     FM301700 17015G25KT P6SM BKN035
     FM302300 21010G20KT 4SM SHRA OVC025=

USA.gov is the U.S. government's official web portal to all federal, state and local government web resources and services.